sensor_id;sensor_type;location;lat;lon;timestamp;P1;durP1;ratioP1;P2;durP2;ratioP2
13366;SDS011;6752;52.612;13.630;2022-11-03T00:01:50;15.63;;;9.40;;
13366;SDS011;6752;52.612;13.630;2022-11-03T00:06:53;13.43;;;9.88;;
13366;SDS011;6752;52.612;13.630;2022-11-03T00:11:55;13.20;;;9.07;;
13366;SDS011;6752;52.612;13.630;2022-11-03T00:16:57;13.05;;;9.10;;
13366;SDS011;6752;52.612;13.630;2022-11-03T00:21:59;12.57;;;9.65;;
13366;SDS011;6752;52.612;13.630;2022-11-03T00:27:02;15.73;;;10.95;;
13366;SDS011;6752;52.612;13.630;2022-11-03T00:32:04;18.25;;;9.63;;
13366;SDS011;6752;52.612;13.630;2022-11-03T00:42:09;10.10;;;8.73;;
13366;SDS011;6752;52.612;13.630;2022-11-03T00:47:11;10.45;;;8.90;;
13366;SDS011;6752;52.612;13.630;2022-11-03T00:52:13;12.75;;;9.77;;
13366;SDS011;6752;52.612;13.630;2022-11-03T00:57:16;9.50;;;8.30;;
13366;SDS011;6752;52.612;13.630;2022-11-03T01:02:18;12.85;;;9.60;;
13366;SDS011;6752;52.612;13.630;2022-11-03T01:12:22;25.45;;;12.37;;
13366;SDS011;6752;52.612;13.630;2022-11-03T01:17:28;13.38;;;10.30;;
13366;SDS011;6752;52.612;13.630;2022-11-03T01:22:30;17.55;;;11.25;;
13366;SDS011;6752;52.612;13.630;2022-11-03T01:27:33;13.73;;;10.70;;
13366;SDS011;6752;52.612;13.630;2022-11-03T01:32:38;13.07;;;10.43;;
13366;SDS011;6752;52.612;13.630;2022-11-03T01:37:40;16.70;;;11.18;;
13366;SDS011;6752;52.612;13.630;2022-11-03T01:42:42;13.00;;;11.02;;
13366;SDS011;6752;52.612;13.630;2022-11-03T01:47:47;13.55;;;10.77;;
13366;SDS011;6752;52.612;13.630;2022-11-03T01:52:51;12.30;;;9.45;;
13366;SDS011;6752;52.612;13.630;2022-11-03T01:57:57;14.18;;;9.30;;
13366;SDS011;6752;52.612;13.630;2022-11-03T02:02:57;10.65;;;8.68;;
13366;SDS011;6752;52.612;13.630;2022-11-03T02:08:04;14.95;;;9.98;;
13366;SDS011;6752;52.612;13.630;2022-11-03T02:13:13;15.07;;;10.25;;
13366;SDS011;6752;52.612;13.630;2022-11-03T02:18:16;19.60;;;12.63;;
13366;SDS011;6752;52.612;13.630;2022-11-03T02:23:31;17.50;;;10.63;;
13366;SDS011;6752;52.612;13.630;2022-11-03T02:28:32;19.73;;;13.30;;
13366;SDS011;6752;52.612;13.630;2022-11-03T02:33:42;24.67;;;13.52;;
13366;SDS011;6752;52.612;13.630;2022-11-03T02:39:08;24.45;;;13.75;;
13366;SDS011;6752;52.612;13.630;2022-11-03T02:44:13;23.95;;;13.77;;
13366;SDS011;6752;52.612;13.630;2022-11-03T02:49:16;25.05;;;13.15;;
13366;SDS011;6752;52.612;13.630;2022-11-03T02:54:22;26.35;;;13.93;;
13366;SDS011;6752;52.612;13.630;2022-11-03T02:59:26;23.08;;;11.82;;
13366;SDS011;6752;52.612;13.630;2022-11-03T03:04:33;19.73;;;12.32;;
13366;SDS011;6752;52.612;13.630;2022-11-03T03:09:39;16.42;;;11.95;;
13366;SDS011;6752;52.612;13.630;2022-11-03T03:14:42;25.98;;;13.88;;
13366;SDS011;6752;52.612;13.630;2022-11-03T03:20:06;24.25;;;12.02;;
13366;SDS011;6752;52.612;13.630;2022-11-03T03:30:28;23.33;;;11.77;;
13366;SDS011;6752;52.612;13.630;2022-11-03T03:35:33;24.83;;;11.80;;
13366;SDS011;6752;52.612;13.630;2022-11-03T03:40:37;22.52;;;11.82;;
13366;SDS011;6752;52.612;13.630;2022-11-03T03:45:41;19.02;;;12.43;;
13366;SDS011;6752;52.612;13.630;2022-11-03T03:50:43;20.73;;;10.68;;
13366;SDS011;6752;52.612;13.630;2022-11-03T03:55:47;26.15;;;12.20;;
13366;SDS011;6752;52.612;13.630;2022-11-03T04:00:48;24.45;;;12.02;;
13366;SDS011;6752;52.612;13.630;2022-11-03T04:05:53;20.70;;;10.80;;
13366;SDS011;6752;52.612;13.630;2022-11-03T04:10:56;28.58;;;10.40;;
13366;SDS011;6752;52.612;13.630;2022-11-03T04:16:17;24.85;;;11.85;;
13366;SDS011;6752;52.612;13.630;2022-11-03T04:21:37;20.70;;;10.45;;
13366;SDS011;6752;52.612;13.630;2022-11-03T04:31:59;17.40;;;10.80;;
13366;SDS011;6752;52.612;13.630;2022-11-03T04:37:03;23.52;;;12.65;;
13366;SDS011;6752;52.612;13.630;2022-11-03T04:42:13;21.20;;;10.30;;
13366;SDS011;6752;52.612;13.630;2022-11-03T04:47:18;15.50;;;10.27;;
13366;SDS011;6752;52.612;13.630;2022-11-03T04:57:26;22.30;;;10.70;;
13366;SDS011;6752;52.612;13.630;2022-11-03T05:02:28;23.02;;;10.43;;
13366;SDS011;6752;52.612;13.630;2022-11-03T05:07:34;25.77;;;11.73;;
13366;SDS011;6752;52.612;13.630;2022-11-03T05:12:36;22.80;;;10.10;;
13366;SDS011;6752;52.612;13.630;2022-11-03T05:17:41;17.77;;;9.90;;
13366;SDS011;6752;52.612;13.630;2022-11-03T05:22:43;22.58;;;10.30;;
13366;SDS011;6752;52.612;13.630;2022-11-03T05:27:48;21.73;;;10.73;;
13366;SDS011;6752;52.612;13.630;2022-11-03T05:32:51;22.37;;;10.93;;
13366;SDS011;6752;52.612;13.630;2022-11-03T05:37:56;19.85;;;10.18;;
13366;SDS011;6752;52.612;13.630;2022-11-03T05:42:59;16.23;;;9.43;;
13366;SDS011;6752;52.612;13.630;2022-11-03T05:48:12;19.27;;;10.55;;
13366;SDS011;6752;52.612;13.630;2022-11-03T05:53:18;18.05;;;9.45;;
13366;SDS011;6752;52.612;13.630;2022-11-03T05:58:30;23.23;;;9.98;;
13366;SDS011;6752;52.612;13.630;2022-11-03T06:03:33;18.55;;;9.25;;
13366;SDS011;6752;52.612;13.630;2022-11-03T06:08:35;15.23;;;8.23;;
13366;SDS011;6752;52.612;13.630;2022-11-03T06:13:40;14.70;;;7.97;;
13366;SDS011;6752;52.612;13.630;2022-11-03T06:18:43;17.60;;;7.53;;
13366;SDS011;6752;52.612;13.630;2022-11-03T06:23:48;21.35;;;9.20;;
13366;SDS011;6752;52.612;13.630;2022-11-03T06:28:51;20.33;;;9.30;;
13366;SDS011;6752;52.612;13.630;2022-11-03T06:33:56;16.70;;;10.10;;
13366;SDS011;6752;52.612;13.630;2022-11-03T06:39:02;18.75;;;9.02;;
13366;SDS011;6752;52.612;13.630;2022-11-03T06:44:16;22.83;;;7.93;;
13366;SDS011;6752;52.612;13.630;2022-11-03T06:49:32;22.92;;;9.90;;
13366;SDS011;6752;52.612;13.630;2022-11-03T06:54:30;16.87;;;8.60;;
13366;SDS011;6752;52.612;13.630;2022-11-03T06:59:32;20.02;;;8.32;;
13366;SDS011;6752;52.612;13.630;2022-11-03T07:04:37;17.90;;;9.55;;
13366;SDS011;6752;52.612;13.630;2022-11-03T07:09:40;21.30;;;9.85;;
13366;SDS011;6752;52.612;13.630;2022-11-03T07:14:45;14.48;;;9.02;;
13366;SDS011;6752;52.612;13.630;2022-11-03T07:19:48;17.25;;;10.13;;
13366;SDS011;6752;52.612;13.630;2022-11-03T07:24:54;21.02;;;9.85;;
13366;SDS011;6752;52.612;13.630;2022-11-03T07:30:08;22.90;;;9.43;;
13366;SDS011;6752;52.612;13.630;2022-11-03T07:35:40;15.50;;;8.23;;
13366;SDS011;6752;52.612;13.630;2022-11-03T07:45:48;15.25;;;9.10;;
13366;SDS011;6752;52.612;13.630;2022-11-03T07:50:54;17.45;;;9.13;;
13366;SDS011;6752;52.612;13.630;2022-11-03T07:55:55;18.58;;;8.88;;
13366;SDS011;6752;52.612;13.630;2022-11-03T08:01:00;14.52;;;8.05;;
13366;SDS011;6752;52.612;13.630;2022-11-03T08:06:02;18.23;;;8.17;;
13366;SDS011;6752;52.612;13.630;2022-11-03T08:11:08;15.18;;;7.00;;
13366;SDS011;6752;52.612;13.630;2022-11-03T08:16:10;18.85;;;6.60;;
13366;SDS011;6752;52.612;13.630;2022-11-03T08:21:12;15.35;;;6.50;;
13366;SDS011;6752;52.612;13.630;2022-11-03T08:26:18;15.05;;;6.62;;
13366;SDS011;6752;52.612;13.630;2022-11-03T08:31:20;14.55;;;5.47;;
13366;SDS011;6752;52.612;13.630;2022-11-03T08:36:22;11.73;;;5.72;;
13366;SDS011;6752;52.612;13.630;2022-11-03T08:41:25;12.60;;;5.78;;
13366;SDS011;6752;52.612;13.630;2022-11-03T08:46:27;10.85;;;5.47;;
13366;SDS011;6752;52.612;13.630;2022-11-03T08:51:29;8.18;;;4.37;;
13366;SDS011;6752;52.612;13.630;2022-11-03T08:56:32;12.82;;;5.00;;
13366;SDS011;6752;52.612;13.630;2022-11-03T09:01:34;14.48;;;5.00;;
13366;SDS011;6752;52.612;13.630;2022-11-03T09:06:37;12.45;;;4.43;;
13366;SDS011;6752;52.612;13.630;2022-11-03T09:11:39;14.27;;;6.45;;
13366;SDS011;6752;52.612;13.630;2022-11-03T09:16:41;14.48;;;5.00;;
13366;SDS011;6752;52.612;13.630;2022-11-03T09:21:44;11.85;;;4.70;;
13366;SDS011;6752;52.612;13.630;2022-11-03T09:26:46;10.98;;;4.65;;
13366;SDS011;6752;52.612;13.630;2022-11-03T09:31:49;15.45;;;5.10;;
13366;SDS011;6752;52.612;13.630;2022-11-03T09:36:51;14.73;;;4.65;;
13366;SDS011;6752;52.612;13.630;2022-11-03T09:41:53;17.48;;;4.30;;
13366;SDS011;6752;52.612;13.630;2022-11-03T09:46:57;14.27;;;4.22;;
13366;SDS011;6752;52.612;13.630;2022-11-03T09:52:02;13.13;;;3.70;;
13366;SDS011;6752;52.612;13.630;2022-11-03T09:57:11;9.98;;;4.03;;
13366;SDS011;6752;52.612;13.630;2022-11-03T10:02:26;12.52;;;4.12;;
13366;SDS011;6752;52.612;13.630;2022-11-03T10:07:27;15.43;;;3.78;;
13366;SDS011;6752;52.612;13.630;2022-11-03T10:12:35;12.50;;;3.65;;
13366;SDS011;6752;52.612;13.630;2022-11-03T10:17:35;19.30;;;3.67;;
13366;SDS011;6752;52.612;13.630;2022-11-03T10:22:40;10.30;;;3.35;;
13366;SDS011;6752;52.612;13.630;2022-11-03T10:27:42;8.05;;;3.00;;
13366;SDS011;6752;52.612;13.630;2022-11-03T10:32:48;16.67;;;3.58;;
13366;SDS011;6752;52.612;13.630;2022-11-03T10:37:50;12.68;;;3.12;;
13366;SDS011;6752;52.612;13.630;2022-11-03T10:42:58;10.60;;;3.15;;
13366;SDS011;6752;52.612;13.630;2022-11-03T10:48:03;14.43;;;3.75;;
13366;SDS011;6752;52.612;13.630;2022-11-03T10:53:15;11.02;;;3.05;;
13366;SDS011;6752;52.612;13.630;2022-11-03T10:58:18;10.52;;;2.65;;
13366;SDS011;6752;52.612;13.630;2022-11-03T11:03:23;11.07;;;4.70;;
13366;SDS011;6752;52.612;13.630;2022-11-03T11:08:25;9.65;;;3.12;;
13366;SDS011;6752;52.612;13.630;2022-11-03T11:13:30;14.48;;;3.85;;
13366;SDS011;6752;52.612;13.630;2022-11-03T11:29:32;11.15;;;3.28;;
13366;SDS011;6752;52.612;13.630;2022-11-03T11:33:48;13.13;;;3.23;;
13366;SDS011;6752;52.612;13.630;2022-11-03T11:38:54;10.30;;;3.50;;
13366;SDS011;6752;52.612;13.630;2022-11-03T11:44:25;12.87;;;3.63;;
13366;SDS011;6752;52.612;13.630;2022-11-03T11:49:14;10.13;;;2.87;;
13366;SDS011;6752;52.612;13.630;2022-11-03T11:54:07;10.60;;;3.30;;
13366;SDS011;6752;52.612;13.630;2022-11-03T11:59:20;11.88;;;3.33;;
13366;SDS011;6752;52.612;13.630;2022-11-03T12:04:21;14.68;;;3.37;;
13366;SDS011;6752;52.612;13.630;2022-11-03T12:09:26;9.65;;;3.30;;
13366;SDS011;6752;52.612;13.630;2022-11-03T12:14:32;11.45;;;3.30;;
13366;SDS011;6752;52.612;13.630;2022-11-03T12:19:34;12.75;;;3.28;;
13366;SDS011;6752;52.612;13.630;2022-11-03T12:24:48;9.15;;;3.03;;
13366;SDS011;6752;52.612;13.630;2022-11-03T12:29:59;10.20;;;3.67;;
13366;SDS011;6752;52.612;13.630;2022-11-03T12:35:02;10.27;;;3.67;;
13366;SDS011;6752;52.612;13.630;2022-11-03T12:40:04;10.77;;;3.60;;
13366;SDS011;6752;52.612;13.630;2022-11-03T12:45:09;9.77;;;3.22;;
13366;SDS011;6752;52.612;13.630;2022-11-03T12:50:12;10.80;;;3.45;;
13366;SDS011;6752;52.612;13.630;2022-11-03T12:55:14;14.30;;;6.03;;
13366;SDS011;6752;52.612;13.630;2022-11-03T13:00:16;9.63;;;3.37;;
13366;SDS011;6752;52.612;13.630;2022-11-03T13:05:19;9.98;;;3.53;;
13366;SDS011;6752;52.612;13.630;2022-11-03T13:10:21;16.12;;;3.55;;
13366;SDS011;6752;52.612;13.630;2022-11-03T13:15:26;8.68;;;3.28;;
13366;SDS011;6752;52.612;13.630;2022-11-03T13:20:29;13.27;;;3.70;;
13366;SDS011;6752;52.612;13.630;2022-11-03T13:25:34;10.65;;;3.37;;
13366;SDS011;6752;52.612;13.630;2022-11-03T13:30:37;11.27;;;3.50;;
13366;SDS011;6752;52.612;13.630;2022-11-03T13:35:42;15.30;;;4.30;;
13366;SDS011;6752;52.612;13.630;2022-11-03T13:40:45;11.75;;;4.05;;
13366;SDS011;6752;52.612;13.630;2022-11-03T13:45:50;9.65;;;3.45;;
13366;SDS011;6752;52.612;13.630;2022-11-03T13:50:52;14.57;;;5.10;;
13366;SDS011;6752;52.612;13.630;2022-11-03T14:00:56;13.15;;;3.90;;
13366;SDS011;6752;52.612;13.630;2022-11-03T14:06:01;16.90;;;4.45;;
13366;SDS011;6752;52.612;13.630;2022-11-03T14:11:04;14.50;;;4.22;;
13366;SDS011;6752;52.612;13.630;2022-11-03T14:16:09;9.88;;;4.18;;
13366;SDS011;6752;52.612;13.630;2022-11-03T14:21:11;13.18;;;4.03;;
13366;SDS011;6752;52.612;13.630;2022-11-03T14:26:16;13.32;;;4.80;;
13366;SDS011;6752;52.612;13.630;2022-11-03T14:31:19;11.50;;;3.60;;
13366;SDS011;6752;52.612;13.630;2022-11-03T14:36:21;13.23;;;4.80;;
13366;SDS011;6752;52.612;13.630;2022-11-03T14:41:24;12.50;;;4.65;;
13366;SDS011;6752;52.612;13.630;2022-11-03T14:46:44;15.83;;;8.23;;
13366;SDS011;6752;52.612;13.630;2022-11-03T14:51:47;13.38;;;5.25;;
13366;SDS011;6752;52.612;13.630;2022-11-03T14:56:49;15.00;;;5.12;;
13366;SDS011;6752;52.612;13.630;2022-11-03T15:06:53;10.25;;;5.20;;
13366;SDS011;6752;52.612;13.630;2022-11-03T15:11:56;13.07;;;5.15;;
13366;SDS011;6752;52.612;13.630;2022-11-03T15:16:58;14.65;;;5.90;;
13366;SDS011;6752;52.612;13.630;2022-11-03T15:22:00;15.63;;;5.82;;
13366;SDS011;6752;52.612;13.630;2022-11-03T15:27:03;11.38;;;4.70;;
13366;SDS011;6752;52.612;13.630;2022-11-03T15:32:05;12.57;;;5.62;;
13366;SDS011;6752;52.612;13.630;2022-11-03T15:37:07;13.90;;;5.20;;
13366;SDS011;6752;52.612;13.630;2022-11-03T15:42:10;16.10;;;5.70;;
13366;SDS011;6752;52.612;13.630;2022-11-03T15:47:12;16.02;;;5.82;;
13366;SDS011;6752;52.612;13.630;2022-11-03T15:52:14;11.48;;;5.37;;
13366;SDS011;6752;52.612;13.630;2022-11-03T15:57:17;11.68;;;5.55;;
13366;SDS011;6752;52.612;13.630;2022-11-03T16:02:19;14.82;;;5.78;;
13366;SDS011;6752;52.612;13.630;2022-11-03T16:07:22;13.50;;;5.28;;
13366;SDS011;6752;52.612;13.630;2022-11-03T16:12:24;16.98;;;6.40;;
13366;SDS011;6752;52.612;13.630;2022-11-03T16:17:26;17.20;;;6.68;;
13366;SDS011;6752;52.612;13.630;2022-11-03T16:22:31;14.77;;;6.55;;
13366;SDS011;6752;52.612;13.630;2022-11-03T16:27:34;13.07;;;5.78;;
13366;SDS011;6752;52.612;13.630;2022-11-03T16:32:39;12.37;;;6.00;;
13366;SDS011;6752;52.612;13.630;2022-11-03T16:37:41;15.48;;;5.50;;
13366;SDS011;6752;52.612;13.630;2022-11-03T16:42:44;18.98;;;10.55;;
13366;SDS011;6752;52.612;13.630;2022-11-03T16:47:49;15.15;;;6.32;;
13366;SDS011;6752;52.612;13.630;2022-11-03T16:52:52;13.30;;;5.72;;
13366;SDS011;6752;52.612;13.630;2022-11-03T16:57:54;12.82;;;6.07;;
13366;SDS011;6752;52.612;13.630;2022-11-03T17:03:00;13.70;;;6.12;;
13366;SDS011;6752;52.612;13.630;2022-11-03T17:08:02;15.82;;;6.68;;
13366;SDS011;6752;52.612;13.630;2022-11-03T17:13:07;11.15;;;6.43;;
13366;SDS011;6752;52.612;13.630;2022-11-03T17:18:09;17.55;;;7.82;;
13366;SDS011;6752;52.612;13.630;2022-11-03T17:23:15;14.93;;;6.93;;
13366;SDS011;6752;52.612;13.630;2022-11-03T17:28:17;19.70;;;7.18;;
13366;SDS011;6752;52.612;13.630;2022-11-03T17:33:22;12.57;;;5.80;;
13366;SDS011;6752;52.612;13.630;2022-11-03T17:38:25;11.63;;;6.37;;
13366;SDS011;6752;52.612;13.630;2022-11-03T17:43:27;11.00;;;6.47;;
13366;SDS011;6752;52.612;13.630;2022-11-03T17:48:32;19.00;;;7.50;;
13366;SDS011;6752;52.612;13.630;2022-11-03T17:53:35;18.00;;;7.12;;
13366;SDS011;6752;52.612;13.630;2022-11-03T17:58:40;17.15;;;6.12;;
13366;SDS011;6752;52.612;13.630;2022-11-03T18:03:46;15.68;;;6.70;;
13366;SDS011;6752;52.612;13.630;2022-11-03T18:08:51;15.45;;;6.70;;
13366;SDS011;6752;52.612;13.630;2022-11-03T18:13:53;13.10;;;6.15;;
13366;SDS011;6752;52.612;13.630;2022-11-03T18:18:56;13.20;;;6.25;;
13366;SDS011;6752;52.612;13.630;2022-11-03T18:24:04;18.00;;;6.72;;
13366;SDS011;6752;52.612;13.630;2022-11-03T18:29:04;15.85;;;6.80;;
13366;SDS011;6752;52.612;13.630;2022-11-03T18:34:17;18.17;;;6.70;;
13366;SDS011;6752;52.612;13.630;2022-11-03T18:39:21;14.68;;;6.68;;
13366;SDS011;6752;52.612;13.630;2022-11-03T18:49:25;16.17;;;7.50;;
13366;SDS011;6752;52.612;13.630;2022-11-03T18:54:27;20.15;;;7.78;;
13366;SDS011;6752;52.612;13.630;2022-11-03T18:59:33;21.98;;;8.55;;
13366;SDS011;6752;52.612;13.630;2022-11-03T19:04:35;17.52;;;8.73;;
13366;SDS011;6752;52.612;13.630;2022-11-03T19:09:37;20.75;;;8.88;;
13366;SDS011;6752;52.612;13.630;2022-11-03T19:14:40;17.15;;;7.50;;
13366;SDS011;6752;52.612;13.630;2022-11-03T19:19:44;15.00;;;7.40;;
13366;SDS011;6752;52.612;13.630;2022-11-03T19:24:47;15.18;;;7.75;;
13366;SDS011;6752;52.612;13.630;2022-11-03T19:30:11;15.48;;;6.97;;
13366;SDS011;6752;52.612;13.630;2022-11-03T19:35:15;17.77;;;7.25;;
13366;SDS011;6752;52.612;13.630;2022-11-03T19:40:17;18.50;;;7.43;;
13366;SDS011;6752;52.612;13.630;2022-11-03T19:45:18;20.95;;;7.95;;
13366;SDS011;6752;52.612;13.630;2022-11-03T19:50:26;17.83;;;7.47;;
13366;SDS011;6752;52.612;13.630;2022-11-03T19:55:33;22.65;;;8.65;;
13366;SDS011;6752;52.612;13.630;2022-11-03T20:00:30;14.18;;;7.65;;
13366;SDS011;6752;52.612;13.630;2022-11-03T20:05:33;16.52;;;7.55;;
13366;SDS011;6752;52.612;13.630;2022-11-03T20:10:35;19.37;;;7.93;;
13366;SDS011;6752;52.612;13.630;2022-11-03T20:15:37;18.55;;;8.90;;
13366;SDS011;6752;52.612;13.630;2022-11-03T20:20:40;16.83;;;9.07;;
13366;SDS011;6752;52.612;13.630;2022-11-03T20:25:42;19.05;;;9.80;;
13366;SDS011;6752;52.612;13.630;2022-11-03T20:30:45;23.25;;;9.88;;
13366;SDS011;6752;52.612;13.630;2022-11-03T20:35:47;17.08;;;9.45;;
13366;SDS011;6752;52.612;13.630;2022-11-03T20:40:50;21.25;;;9.38;;
13366;SDS011;6752;52.612;13.630;2022-11-03T20:45:56;18.98;;;9.05;;
13366;SDS011;6752;52.612;13.630;2022-11-03T20:50:59;18.87;;;9.48;;
13366;SDS011;6752;52.612;13.630;2022-11-03T20:56:03;17.15;;;8.10;;
13366;SDS011;6752;52.612;13.630;2022-11-03T21:01:11;18.73;;;8.57;;
13366;SDS011;6752;52.612;13.630;2022-11-03T21:06:12;16.85;;;9.43;;
13366;SDS011;6752;52.612;13.630;2022-11-03T21:11:21;18.75;;;10.30;;
13366;SDS011;6752;52.612;13.630;2022-11-03T21:16:25;20.58;;;9.98;;
13366;SDS011;6752;52.612;13.630;2022-11-03T21:21:45;25.05;;;11.63;;
13366;SDS011;6752;52.612;13.630;2022-11-03T21:26:47;22.67;;;10.35;;
13366;SDS011;6752;52.612;13.630;2022-11-03T21:31:50;19.55;;;10.82;;
13366;SDS011;6752;52.612;13.630;2022-11-03T21:36:52;16.77;;;9.60;;
13366;SDS011;6752;52.612;13.630;2022-11-03T21:41:55;19.20;;;11.07;;
13366;SDS011;6752;52.612;13.630;2022-11-03T21:47:15;22.00;;;10.82;;
13366;SDS011;6752;52.612;13.630;2022-11-03T21:52:18;20.40;;;10.55;;
13366;SDS011;6752;52.612;13.630;2022-11-03T21:57:20;19.17;;;10.65;;
13366;SDS011;6752;52.612;13.630;2022-11-03T22:02:24;21.65;;;10.98;;
13366;SDS011;6752;52.612;13.630;2022-11-03T22:07:27;20.50;;;11.12;;
13366;SDS011;6752;52.612;13.630;2022-11-03T22:12:28;30.10;;;11.60;;
13366;SDS011;6752;52.612;13.630;2022-11-03T22:17:30;20.35;;;11.65;;
13366;SDS011;6752;52.612;13.630;2022-11-03T22:22:33;21.52;;;10.45;;
13366;SDS011;6752;52.612;13.630;2022-11-03T22:32:40;18.27;;;11.63;;
13366;SDS011;6752;52.612;13.630;2022-11-03T22:37:42;22.55;;;11.15;;
13366;SDS011;6752;52.612;13.630;2022-11-03T22:42:45;22.13;;;12.70;;
13366;SDS011;6752;52.612;13.630;2022-11-03T22:48:05;21.08;;;11.63;;
13366;SDS011;6752;52.612;13.630;2022-11-03T22:53:10;21.75;;;12.20;;
13366;SDS011;6752;52.612;13.630;2022-11-03T22:58:31;17.67;;;11.73;;
13366;SDS011;6752;52.612;13.630;2022-11-03T23:03:38;24.87;;;12.23;;
13366;SDS011;6752;52.612;13.630;2022-11-03T23:08:38;21.08;;;12.82;;
13366;SDS011;6752;52.612;13.630;2022-11-03T23:13:41;18.98;;;12.63;;
13366;SDS011;6752;52.612;13.630;2022-11-03T23:18:46;21.77;;;12.87;;
13366;SDS011;6752;52.612;13.630;2022-11-03T23:24:06;20.55;;;12.52;;
13366;SDS011;6752;52.612;13.630;2022-11-03T23:34:32;21.05;;;11.68;;
13366;SDS011;6752;52.612;13.630;2022-11-03T23:39:34;20.40;;;12.37;;
13366;SDS011;6752;52.612;13.630;2022-11-03T23:44:39;21.70;;;12.60;;
13366;SDS011;6752;52.612;13.630;2022-11-03T23:50:02;25.27;;;13.93;;
13366;SDS011;6752;52.612;13.630;2022-11-03T23:55:04;27.98;;;13.68;;
